sensor_id;sensor_type;location;lat;lon;timestamp;pressure;altitude;pressure_sealevel;temperature
69590;BMP180;56792;50.644;17.984;2022-08-04T00:01:09;99873.80;;;17.30
69590;BMP180;56792;50.644;17.984;2022-08-04T00:04:20;99877.00;;;17.30
69590;BMP180;56792;50.644;17.984;2022-08-04T00:07:25;99876.00;;;17.20
69590;BMP180;56792;50.644;17.984;2022-08-04T00:10:06;99874.20;;;17.20
69590;BMP180;56792;50.644;17.984;2022-08-04T00:12:49;99873.40;;;17.20
69590;BMP180;56792;50.644;17.984;2022-08-04T00:15:27;99874.60;;;17.10
69590;BMP180;56792;50.644;17.984;2022-08-04T00:18:08;99871.80;;;17.10
69590;BMP180;56792;50.644;17.984;2022-08-04T00:20:46;99872.60;;;17.10
69590;BMP180;56792;50.644;17.984;2022-08-04T00:23:43;99876.80;;;17.10
69590;BMP180;56792;50.644;17.984;2022-08-04T00:26:28;99872.60;;;17.02
69590;BMP180;56792;50.644;17.984;2022-08-04T00:29:12;99875.80;;;17.00
69590;BMP180;56792;50.644;17.984;2022-08-04T00:31:50;99877.00;;;17.00
69590;BMP180;56792;50.644;17.984;2022-08-04T00:34:31;99881.20;;;16.90
69590;BMP180;56792;50.644;17.984;2022-08-04T00:37:15;99876.40;;;16.90
69590;BMP180;56792;50.644;17.984;2022-08-04T00:39:52;99878.80;;;16.90
69590;BMP180;56792;50.644;17.984;2022-08-04T00:42:46;99877.40;;;16.90
69590;BMP180;56792;50.644;17.984;2022-08-04T00:45:51;99885.20;;;16.90
69590;BMP180;56792;50.644;17.984;2022-08-04T00:49:10;99879.40;;;16.80
69590;BMP180;56792;50.644;17.984;2022-08-04T00:52:05;99870.60;;;16.78
69590;BMP180;56792;50.644;17.984;2022-08-04T00:55:04;99871.60;;;16.70
69590;BMP180;56792;50.644;17.984;2022-08-04T00:58:14;99867.20;;;16.68
69590;BMP180;56792;50.644;17.984;2022-08-04T01:01:05;99867.60;;;16.60
69590;BMP180;56792;50.644;17.984;2022-08-04T01:04:06;99870.80;;;16.60
69590;BMP180;56792;50.644;17.984;2022-08-04T01:06:58;99873.60;;;16.60
69590;BMP180;56792;50.644;17.984;2022-08-04T01:09:55;99867.20;;;16.60
69590;BMP180;56792;50.644;17.984;2022-08-04T01:13:25;99873.20;;;16.60
69590;BMP180;56792;50.644;17.984;2022-08-04T01:16:06;99872.80;;;16.60
69590;BMP180;56792;50.644;17.984;2022-08-04T01:18:53;99873.00;;;16.60
69590;BMP180;56792;50.644;17.984;2022-08-04T01:22:21;99875.40;;;16.60
69590;BMP180;56792;50.644;17.984;2022-08-04T01:25:36;99877.80;;;16.56
69590;BMP180;56792;50.644;17.984;2022-08-04T01:29:07;99889.20;;;16.50
69590;BMP180;56792;50.644;17.984;2022-08-04T01:32:01;99883.80;;;16.50
69590;BMP180;56792;50.644;17.984;2022-08-04T01:34:55;99883.80;;;16.50
69590;BMP180;56792;50.644;17.984;2022-08-04T01:37:50;99879.00;;;16.48
69590;BMP180;56792;50.644;17.984;2022-08-04T01:40:47;99878.40;;;16.40
69590;BMP180;56792;50.644;17.984;2022-08-04T01:43:34;99886.40;;;16.40
69590;BMP180;56792;50.644;17.984;2022-08-04T01:46:14;99879.80;;;16.38
69590;BMP180;56792;50.644;17.984;2022-08-04T01:48:59;99877.40;;;16.40
69590;BMP180;56792;50.644;17.984;2022-08-04T01:51:46;99878.80;;;16.30
69590;BMP180;56792;50.644;17.984;2022-08-04T01:54:29;99878.60;;;16.30
69590;BMP180;56792;50.644;17.984;2022-08-04T01:57:10;99877.20;;;16.30
69590;BMP180;56792;50.644;17.984;2022-08-04T02:00:04;99872.00;;;16.20
69590;BMP180;56792;50.644;17.984;2022-08-04T02:02:50;99878.00;;;16.20
69590;BMP180;56792;50.644;17.984;2022-08-04T02:05:29;99874.80;;;16.10
69590;BMP180;56792;50.644;17.984;2022-08-04T02:08:29;99872.20;;;16.10
69590;BMP180;56792;50.644;17.984;2022-08-04T02:11:19;99867.80;;;16.10
69590;BMP180;56792;50.644;17.984;2022-08-04T02:14:22;99862.00;;;16.10
69590;BMP180;56792;50.644;17.984;2022-08-04T02:17:28;99867.40;;;16.08
69590;BMP180;56792;50.644;17.984;2022-08-04T02:20:21;99869.40;;;16.00
69590;BMP180;56792;50.644;17.984;2022-08-04T02:23:10;99864.20;;;16.00
69590;BMP180;56792;50.644;17.984;2022-08-04T02:26:09;99859.00;;;15.90
69590;BMP180;56792;50.644;17.984;2022-08-04T02:29:06;99853.60;;;15.90
69590;BMP180;56792;50.644;17.984;2022-08-04T02:32:04;99850.80;;;15.90
69590;BMP180;56792;50.644;17.984;2022-08-04T02:34:59;99852.20;;;15.90
69590;BMP180;56792;50.644;17.984;2022-08-04T02:38:05;99847.00;;;15.80
69590;BMP180;56792;50.644;17.984;2022-08-04T02:40:51;99848.20;;;15.80
69590;BMP180;56792;50.644;17.984;2022-08-04T02:43:31;99848.60;;;15.80
69590;BMP180;56792;50.644;17.984;2022-08-04T02:46:24;99844.20;;;15.80
69590;BMP180;56792;50.644;17.984;2022-08-04T02:49:06;99849.40;;;15.80
69590;BMP180;56792;50.644;17.984;2022-08-04T02:51:54;99840.20;;;15.70
69590;BMP180;56792;50.644;17.984;2022-08-04T02:54:40;99836.60;;;15.70
69590;BMP180;56792;50.644;17.984;2022-08-04T02:57:28;99840.00;;;15.70
69590;BMP180;56792;50.644;17.984;2022-08-04T03:00:22;99842.60;;;15.70
69590;BMP180;56792;50.644;17.984;2022-08-04T03:03:14;99842.80;;;15.70
69590;BMP180;56792;50.644;17.984;2022-08-04T03:06:27;99841.40;;;15.60
69590;BMP180;56792;50.644;17.984;2022-08-04T03:10:03;99842.00;;;15.60
69590;BMP180;56792;50.644;17.984;2022-08-04T03:23:53;99847.20;;;15.60
69590;BMP180;56792;50.644;17.984;2022-08-04T03:30:54;99846.80;;;15.60
69590;BMP180;56792;50.644;17.984;2022-08-04T03:34:06;99848.60;;;15.60
69590;BMP180;56792;50.644;17.984;2022-08-04T03:37:42;99851.40;;;15.50
69590;BMP180;56792;50.644;17.984;2022-08-04T03:41:29;99854.00;;;15.56
69590;BMP180;56792;50.644;17.984;2022-08-04T03:48:21;99854.60;;;15.60
69590;BMP180;56792;50.644;17.984;2022-08-04T03:51:37;99859.20;;;15.60
69590;BMP180;56792;50.644;17.984;2022-08-04T03:55:41;99860.20;;;15.60
69590;BMP180;56792;50.644;17.984;2022-08-04T04:02:32;99865.60;;;15.62
69590;BMP180;56792;50.644;17.984;2022-08-04T04:05:43;99867.20;;;15.70
69590;BMP180;56792;50.644;17.984;2022-08-04T04:12:24;99861.20;;;15.76
69590;BMP180;56792;50.644;17.984;2022-08-04T04:15:41;99858.00;;;15.80
69590;BMP180;56792;50.644;17.984;2022-08-04T04:19:16;99855.80;;;15.80
69590;BMP180;56792;50.644;17.984;2022-08-04T04:22:48;99858.20;;;15.90
69590;BMP180;56792;50.644;17.984;2022-08-04T04:25:54;99859.20;;;15.90
69590;BMP180;56792;50.644;17.984;2022-08-04T04:29:06;99863.00;;;16.00
69590;BMP180;56792;50.644;17.984;2022-08-04T04:32:16;99864.00;;;16.00
69590;BMP180;56792;50.644;17.984;2022-08-04T04:35:20;99863.00;;;16.10
69590;BMP180;56792;50.644;17.984;2022-08-04T04:38:38;99863.60;;;16.12
69590;BMP180;56792;50.644;17.984;2022-08-04T04:41:41;99856.40;;;16.20
69590;BMP180;56792;50.644;17.984;2022-08-04T04:45:14;99861.00;;;16.30
69590;BMP180;56792;50.644;17.984;2022-08-04T04:48:11;99859.60;;;16.40
69590;BMP180;56792;50.644;17.984;2022-08-04T04:51:07;99862.40;;;16.50
69590;BMP180;56792;50.644;17.984;2022-08-04T04:54:07;99863.60;;;16.50
69590;BMP180;56792;50.644;17.984;2022-08-04T04:56:55;99860.80;;;16.60
69590;BMP180;56792;50.644;17.984;2022-08-04T04:59:44;99862.80;;;16.70
69590;BMP180;56792;50.644;17.984;2022-08-04T05:03:01;99860.80;;;16.82
69590;BMP180;56792;50.644;17.984;2022-08-04T05:05:58;99867.00;;;17.00
69590;BMP180;56792;50.644;17.984;2022-08-04T05:09:13;99870.60;;;17.08
69590;BMP180;56792;50.644;17.984;2022-08-04T05:12:41;99866.40;;;17.20
69590;BMP180;56792;50.644;17.984;2022-08-04T05:15:43;99868.40;;;17.30
69590;BMP180;56792;50.644;17.984;2022-08-04T05:18:34;99871.80;;;17.32
69590;BMP180;56792;50.644;17.984;2022-08-04T05:21:36;99872.20;;;17.42
69590;BMP180;56792;50.644;17.984;2022-08-04T05:24:25;99872.20;;;17.52
69590;BMP180;56792;50.644;17.984;2022-08-04T05:27:13;99877.80;;;17.60
69590;BMP180;56792;50.644;17.984;2022-08-04T05:29:56;99875.60;;;17.76
69590;BMP180;56792;50.644;17.984;2022-08-04T05:32:49;99871.60;;;17.82
69590;BMP180;56792;50.644;17.984;2022-08-04T05:35:47;99876.40;;;18.00
69590;BMP180;56792;50.644;17.984;2022-08-04T05:38:39;99877.00;;;18.10
69590;BMP180;56792;50.644;17.984;2022-08-04T05:41:27;99881.00;;;18.20
69590;BMP180;56792;50.644;17.984;2022-08-04T05:44:08;99876.60;;;18.34
69590;BMP180;56792;50.644;17.984;2022-08-04T05:46:54;99872.40;;;18.50
69590;BMP180;56792;50.644;17.984;2022-08-04T05:49:33;99875.40;;;18.60
69590;BMP180;56792;50.644;17.984;2022-08-04T05:52:27;99878.40;;;18.78
69590;BMP180;56792;50.644;17.984;2022-08-04T05:55:08;99876.20;;;18.90
69590;BMP180;56792;50.644;17.984;2022-08-04T05:57:57;99879.00;;;19.08
69590;BMP180;56792;50.644;17.984;2022-08-04T06:00:38;99877.80;;;19.20
69590;BMP180;56792;50.644;17.984;2022-08-04T06:03:26;99880.20;;;19.40
69590;BMP180;56792;50.644;17.984;2022-08-04T06:06:07;99878.00;;;19.50
69590;BMP180;56792;50.644;17.984;2022-08-04T06:09:02;99878.40;;;19.70
69590;BMP180;56792;50.644;17.984;2022-08-04T06:11:42;99879.20;;;19.90
69590;BMP180;56792;50.644;17.984;2022-08-04T06:14:25;99876.60;;;20.04
69590;BMP180;56792;50.644;17.984;2022-08-04T06:17:19;99881.20;;;20.28
69590;BMP180;56792;50.644;17.984;2022-08-04T06:20:10;99880.60;;;20.46
69590;BMP180;56792;50.644;17.984;2022-08-04T06:23:07;99878.00;;;20.70
69590;BMP180;56792;50.644;17.984;2022-08-04T06:26:10;99881.60;;;20.90
69590;BMP180;56792;50.644;17.984;2022-08-04T06:29:11;99884.40;;;21.20
69590;BMP180;56792;50.644;17.984;2022-08-04T06:36:35;99886.20;;;21.80
69590;BMP180;56792;50.644;17.984;2022-08-04T06:43:30;99890.80;;;22.46
69590;BMP180;56792;50.644;17.984;2022-08-04T06:46:16;99891.40;;;22.78
69590;BMP180;56792;50.644;17.984;2022-08-04T06:49:03;99891.20;;;23.00
69590;BMP180;56792;50.644;17.984;2022-08-04T06:51:49;99890.20;;;23.22
69590;BMP180;56792;50.644;17.984;2022-08-04T06:54:36;99894.20;;;23.52
69590;BMP180;56792;50.644;17.984;2022-08-04T06:57:27;99895.00;;;23.80
69590;BMP180;56792;50.644;17.984;2022-08-04T07:03:24;99893.80;;;24.30
69590;BMP180;56792;50.644;17.984;2022-08-04T07:05:57;99892.20;;;24.50
69590;BMP180;56792;50.644;17.984;2022-08-04T07:08:52;99894.20;;;24.70
69590;BMP180;56792;50.644;17.984;2022-08-04T07:11:29;99891.00;;;24.90
69590;BMP180;56792;50.644;17.984;2022-08-04T07:27:19;99883.80;;;26.00
69590;BMP180;56792;50.644;17.984;2022-08-04T07:30:58;99885.80;;;26.20
69590;BMP180;56792;50.644;17.984;2022-08-04T07:33:38;99888.40;;;26.50
69590;BMP180;56792;50.644;17.984;2022-08-04T07:40:14;99886.20;;;26.92
69590;BMP180;56792;50.644;17.984;2022-08-04T07:43:00;99882.60;;;27.10
69590;BMP180;56792;50.644;17.984;2022-08-04T07:45:53;99887.80;;;27.30
69590;BMP180;56792;50.644;17.984;2022-08-04T07:57:12;99880.60;;;27.80
69590;BMP180;56792;50.644;17.984;2022-08-04T08:14:03;99886.20;;;28.70
69590;BMP180;56792;50.644;17.984;2022-08-04T08:16:49;99878.80;;;28.80
69590;BMP180;56792;50.644;17.984;2022-08-04T08:19:45;99880.40;;;28.80
69590;BMP180;56792;50.644;17.984;2022-08-04T08:26:36;99876.00;;;29.22
69590;BMP180;56792;50.644;17.984;2022-08-04T08:29:23;99872.20;;;29.40
69590;BMP180;56792;50.644;17.984;2022-08-04T08:32:41;99878.80;;;29.50
69590;BMP180;56792;50.644;17.984;2022-08-04T08:35:13;99884.80;;;29.70
69590;BMP180;56792;50.644;17.984;2022-08-04T09:14:32;99881.00;;;31.60
69590;BMP180;56792;50.644;17.984;2022-08-04T09:17:34;99882.60;;;31.60
69590;BMP180;56792;50.644;17.984;2022-08-04T09:28:46;99880.20;;;32.30
69590;BMP180;56792;50.644;17.984;2022-08-04T09:39:23;99880.60;;;32.80
69590;BMP180;56792;50.644;17.984;2022-08-04T09:54:15;99871.00;;;33.30
69590;BMP180;56792;50.644;17.984;2022-08-04T14:16:21;99745.20;;;35.40
69590;BMP180;56792;50.644;17.984;2022-08-04T14:19:15;99742.60;;;35.28
69590;BMP180;56792;50.644;17.984;2022-08-04T14:21:57;99747.00;;;34.02
69590;BMP180;56792;50.644;17.984;2022-08-04T14:24:58;99744.00;;;33.90
69590;BMP180;56792;50.644;17.984;2022-08-04T15:40:10;99702.40;;;32.70
69590;BMP180;56792;50.644;17.984;2022-08-04T15:43:38;99699.00;;;32.68
69590;BMP180;56792;50.644;17.984;2022-08-04T15:51:15;99702.00;;;32.10
69590;BMP180;56792;50.644;17.984;2022-08-04T16:02:41;99692.00;;;31.92
69590;BMP180;56792;50.644;17.984;2022-08-04T16:09:30;99687.20;;;31.90
69590;BMP180;56792;50.644;17.984;2022-08-04T16:13:10;99686.80;;;31.80
69590;BMP180;56792;50.644;17.984;2022-08-04T16:15:53;99687.20;;;31.70
69590;BMP180;56792;50.644;17.984;2022-08-04T16:22:51;99687.60;;;31.50
69590;BMP180;56792;50.644;17.984;2022-08-04T16:25:57;99687.80;;;31.40
69590;BMP180;56792;50.644;17.984;2022-08-04T16:28:49;99689.20;;;31.40
69590;BMP180;56792;50.644;17.984;2022-08-04T16:32:15;99686.00;;;31.30
69590;BMP180;56792;50.644;17.984;2022-08-04T16:35:57;99680.80;;;31.24
69590;BMP180;56792;50.644;17.984;2022-08-04T16:39:03;99680.00;;;31.20
69590;BMP180;56792;50.644;17.984;2022-08-04T16:41:58;99678.00;;;31.10
69590;BMP180;56792;50.644;17.984;2022-08-04T16:44:44;99680.80;;;31.00
69590;BMP180;56792;50.644;17.984;2022-08-04T16:50:54;99682.60;;;30.72
69590;BMP180;56792;50.644;17.984;2022-08-04T16:53:31;99677.80;;;30.68
69590;BMP180;56792;50.644;17.984;2022-08-04T16:56:12;99679.40;;;30.60
69590;BMP180;56792;50.644;17.984;2022-08-04T16:58:55;99678.20;;;30.50
69590;BMP180;56792;50.644;17.984;2022-08-04T17:01:44;99673.80;;;30.30
69590;BMP180;56792;50.644;17.984;2022-08-04T17:04:36;99676.40;;;30.20
69590;BMP180;56792;50.644;17.984;2022-08-04T17:07:54;99681.60;;;30.00
69590;BMP180;56792;50.644;17.984;2022-08-04T17:10:45;99677.40;;;29.90
69590;BMP180;56792;50.644;17.984;2022-08-04T17:13:32;99680.00;;;29.80
69590;BMP180;56792;50.644;17.984;2022-08-04T17:16:25;99674.80;;;29.70
69590;BMP180;56792;50.644;17.984;2022-08-04T17:19:06;99672.80;;;29.60
69590;BMP180;56792;50.644;17.984;2022-08-04T17:21:54;99673.80;;;29.52
69590;BMP180;56792;50.644;17.984;2022-08-04T17:24:49;99675.00;;;29.46
69590;BMP180;56792;50.644;17.984;2022-08-04T17:27:28;99674.00;;;29.40
69590;BMP180;56792;50.644;17.984;2022-08-04T17:30:28;99671.00;;;29.30
69590;BMP180;56792;50.644;17.984;2022-08-04T17:33:01;99674.60;;;29.20
69590;BMP180;56792;50.644;17.984;2022-08-04T17:35:41;99674.80;;;29.10
69590;BMP180;56792;50.644;17.984;2022-08-04T17:38:23;99677.80;;;29.00
69590;BMP180;56792;50.644;17.984;2022-08-04T17:41:31;99674.00;;;28.90
69590;BMP180;56792;50.644;17.984;2022-08-04T17:44:20;99674.40;;;28.86
69590;BMP180;56792;50.644;17.984;2022-08-04T17:46:55;99674.20;;;28.72
69590;BMP180;56792;50.644;17.984;2022-08-04T17:49:30;99675.00;;;28.60
69590;BMP180;56792;50.644;17.984;2022-08-04T17:52:06;99673.00;;;28.42
69590;BMP180;56792;50.644;17.984;2022-08-04T17:58:39;99674.20;;;28.20
69590;BMP180;56792;50.644;17.984;2022-08-04T18:01:15;99674.60;;;28.10
69590;BMP180;56792;50.644;17.984;2022-08-04T18:03:47;99674.00;;;28.00
69590;BMP180;56792;50.644;17.984;2022-08-04T18:06:19;99675.80;;;27.90
69590;BMP180;56792;50.644;17.984;2022-08-04T18:09:03;99678.00;;;27.80
69590;BMP180;56792;50.644;17.984;2022-08-04T18:11:55;99678.40;;;27.68
69590;BMP180;56792;50.644;17.984;2022-08-04T18:14:46;99677.60;;;27.50
69590;BMP180;56792;50.644;17.984;2022-08-04T18:17:39;99679.40;;;27.40
69590;BMP180;56792;50.644;17.984;2022-08-04T18:20:27;99677.20;;;27.30
69590;BMP180;56792;50.644;17.984;2022-08-04T18:24:09;99679.60;;;27.20
69590;BMP180;56792;50.644;17.984;2022-08-04T18:26:47;99684.80;;;27.00
69590;BMP180;56792;50.644;17.984;2022-08-04T18:29:28;99685.00;;;26.90
69590;BMP180;56792;50.644;17.984;2022-08-04T18:32:06;99690.60;;;26.80
69590;BMP180;56792;50.644;17.984;2022-08-04T18:34:43;99689.20;;;26.60
69590;BMP180;56792;50.644;17.984;2022-08-04T18:37:20;99688.20;;;26.50
69590;BMP180;56792;50.644;17.984;2022-08-04T18:39:58;99687.60;;;26.40
69590;BMP180;56792;50.644;17.984;2022-08-04T18:42:36;99687.20;;;26.30
69590;BMP180;56792;50.644;17.984;2022-08-04T18:45:28;99690.60;;;26.10
69590;BMP180;56792;50.644;17.984;2022-08-04T18:48:07;99691.20;;;26.00
69590;BMP180;56792;50.644;17.984;2022-08-04T18:50:45;99689.20;;;25.90
69590;BMP180;56792;50.644;17.984;2022-08-04T18:53:37;99689.20;;;25.80
69590;BMP180;56792;50.644;17.984;2022-08-04T18:56:16;99691.20;;;25.70
69590;BMP180;56792;50.644;17.984;2022-08-04T18:59:22;99690.60;;;25.60
69590;BMP180;56792;50.644;17.984;2022-08-04T19:02:05;99690.20;;;25.60
69590;BMP180;56792;50.644;17.984;2022-08-04T19:04:42;99692.20;;;25.50
69590;BMP180;56792;50.644;17.984;2022-08-04T19:07:15;99689.80;;;25.46
69590;BMP180;56792;50.644;17.984;2022-08-04T19:09:55;99688.40;;;25.40
69590;BMP180;56792;50.644;17.984;2022-08-04T19:12:33;99687.40;;;25.30
69590;BMP180;56792;50.644;17.984;2022-08-04T19:15:28;99688.20;;;25.20
69590;BMP180;56792;50.644;17.984;2022-08-04T19:18:08;99690.20;;;25.18
69590;BMP180;56792;50.644;17.984;2022-08-04T19:21:09;99694.60;;;25.10
69590;BMP180;56792;50.644;17.984;2022-08-04T19:24:09;99698.40;;;25.00
69590;BMP180;56792;50.644;17.984;2022-08-04T19:27:10;99695.80;;;25.00
69590;BMP180;56792;50.644;17.984;2022-08-04T19:30:08;99695.60;;;24.90
69590;BMP180;56792;50.644;17.984;2022-08-04T19:33:06;99700.60;;;24.90
69590;BMP180;56792;50.644;17.984;2022-08-04T19:39:39;99704.80;;;24.70
69590;BMP180;56792;50.644;17.984;2022-08-04T19:42:33;99705.00;;;24.70
69590;BMP180;56792;50.644;17.984;2022-08-04T19:45:12;99702.60;;;24.60
69590;BMP180;56792;50.644;17.984;2022-08-04T19:47:47;99706.60;;;24.60
69590;BMP180;56792;50.644;17.984;2022-08-04T19:50:24;99702.60;;;24.50
69590;BMP180;56792;50.644;17.984;2022-08-04T19:53:03;99703.20;;;24.50
69590;BMP180;56792;50.644;17.984;2022-08-04T19:55:42;99706.20;;;24.42
69590;BMP180;56792;50.644;17.984;2022-08-04T19:58:39;99706.40;;;24.40
69590;BMP180;56792;50.644;17.984;2022-08-04T20:01:24;99709.40;;;24.30
69590;BMP180;56792;50.644;17.984;2022-08-04T20:04:07;99710.80;;;24.20
69590;BMP180;56792;50.644;17.984;2022-08-04T20:07:08;99707.20;;;24.20
69590;BMP180;56792;50.644;17.984;2022-08-04T20:09:45;99712.00;;;24.12
69590;BMP180;56792;50.644;17.984;2022-08-04T20:12:24;99710.60;;;24.10
69590;BMP180;56792;50.644;17.984;2022-08-04T20:15:08;99715.60;;;24.02
69590;BMP180;56792;50.644;17.984;2022-08-04T20:17:54;99718.00;;;24.00
69590;BMP180;56792;50.644;17.984;2022-08-04T20:20:31;99722.00;;;24.00
69590;BMP180;56792;50.644;17.984;2022-08-04T20:23:19;99725.60;;;24.08
69590;BMP180;56792;50.644;17.984;2022-08-04T20:25:54;99723.60;;;24.10
69590;BMP180;56792;50.644;17.984;2022-08-04T20:28:35;99720.00;;;24.00
69590;BMP180;56792;50.644;17.984;2022-08-04T20:31:32;99723.80;;;23.90
69590;BMP180;56792;50.644;17.984;2022-08-04T20:34:18;99722.60;;;23.80
69590;BMP180;56792;50.644;17.984;2022-08-04T20:36:56;99721.40;;;23.70
69590;BMP180;56792;50.644;17.984;2022-08-04T20:39:51;99718.80;;;23.60
69590;BMP180;56792;50.644;17.984;2022-08-04T20:42:42;99722.40;;;23.50
69590;BMP180;56792;50.644;17.984;2022-08-04T20:45:21;99718.60;;;23.40
69590;BMP180;56792;50.644;17.984;2022-08-04T20:48:07;99722.40;;;23.40
69590;BMP180;56792;50.644;17.984;2022-08-04T20:50:47;99723.40;;;23.50
69590;BMP180;56792;50.644;17.984;2022-08-04T20:53:25;99722.20;;;23.40
69590;BMP180;56792;50.644;17.984;2022-08-04T20:56:04;99721.60;;;23.30
69590;BMP180;56792;50.644;17.984;2022-08-04T20:58:44;99721.80;;;23.20
69590;BMP180;56792;50.644;17.984;2022-08-04T21:01:23;99717.00;;;23.20
69590;BMP180;56792;50.644;17.984;2022-08-04T21:04:06;99722.00;;;23.10
69590;BMP180;56792;50.644;17.984;2022-08-04T21:07:04;99722.40;;;23.00
69590;BMP180;56792;50.644;17.984;2022-08-04T21:09:43;99724.80;;;23.00
69590;BMP180;56792;50.644;17.984;2022-08-04T21:12:20;99725.80;;;22.90
69590;BMP180;56792;50.644;17.984;2022-08-04T21:14:56;99727.40;;;22.90
69590;BMP180;56792;50.644;17.984;2022-08-04T21:17:30;99727.20;;;22.80
69590;BMP180;56792;50.644;17.984;2022-08-04T21:20:11;99721.80;;;22.74
69590;BMP180;56792;50.644;17.984;2022-08-04T21:22:56;99723.20;;;22.70
69590;BMP180;56792;50.644;17.984;2022-08-04T21:26:01;99727.60;;;22.60
69590;BMP180;56792;50.644;17.984;2022-08-04T21:28:39;99726.80;;;22.50
69590;BMP180;56792;50.644;17.984;2022-08-04T21:31:14;99726.40;;;22.40
69590;BMP180;56792;50.644;17.984;2022-08-04T21:33:48;99727.00;;;22.36
69590;BMP180;56792;50.644;17.984;2022-08-04T21:36:23;99730.20;;;22.30
69590;BMP180;56792;50.644;17.984;2022-08-04T21:38:57;99726.40;;;22.20
69590;BMP180;56792;50.644;17.984;2022-08-04T21:41:38;99719.40;;;22.12
69590;BMP180;56792;50.644;17.984;2022-08-04T21:44:32;99719.00;;;22.00
69590;BMP180;56792;50.644;17.984;2022-08-04T21:47:08;99720.60;;;22.00
69590;BMP180;56792;50.644;17.984;2022-08-04T21:49:47;99716.00;;;21.98
69590;BMP180;56792;50.644;17.984;2022-08-04T21:52:27;99716.20;;;21.90
69590;BMP180;56792;50.644;17.984;2022-08-04T21:55:06;99715.00;;;21.80
69590;BMP180;56792;50.644;17.984;2022-08-04T21:57:44;99715.60;;;21.80
69590;BMP180;56792;50.644;17.984;2022-08-04T22:00:22;99722.80;;;21.74
69590;BMP180;56792;50.644;17.984;2022-08-04T22:03:04;99721.00;;;21.70
69590;BMP180;56792;50.644;17.984;2022-08-04T22:05:42;99719.40;;;21.62
69590;BMP180;56792;50.644;17.984;2022-08-04T22:08:22;99719.80;;;21.60
69590;BMP180;56792;50.644;17.984;2022-08-04T22:11:04;99721.20;;;21.60
69590;BMP180;56792;50.644;17.984;2022-08-04T22:14:02;99718.40;;;21.50
69590;BMP180;56792;50.644;17.984;2022-08-04T22:16:42;99719.00;;;21.50
69590;BMP180;56792;50.644;17.984;2022-08-04T22:19:22;99716.40;;;21.40
69590;BMP180;56792;50.644;17.984;2022-08-04T22:21:59;99717.00;;;21.40
69590;BMP180;56792;50.644;17.984;2022-08-04T22:24:32;99715.80;;;21.30
69590;BMP180;56792;50.644;17.984;2022-08-04T22:27:24;99713.80;;;21.20
69590;BMP180;56792;50.644;17.984;2022-08-04T22:30:43;99712.00;;;21.20
69590;BMP180;56792;50.644;17.984;2022-08-04T22:33:39;99718.80;;;21.10
69590;BMP180;56792;50.644;17.984;2022-08-04T22:36:17;99711.00;;;21.00
69590;BMP180;56792;50.644;17.984;2022-08-04T22:38:54;99711.00;;;21.00
69590;BMP180;56792;50.644;17.984;2022-08-04T22:41:33;99709.80;;;20.90
69590;BMP180;56792;50.644;17.984;2022-08-04T22:44:09;99712.00;;;20.80
69590;BMP180;56792;50.644;17.984;2022-08-04T22:46:44;99712.20;;;20.80
69590;BMP180;56792;50.644;17.984;2022-08-04T22:49:26;99710.80;;;20.70
69590;BMP180;56792;50.644;17.984;2022-08-04T22:52:13;99710.00;;;20.70
69590;BMP180;56792;50.644;17.984;2022-08-04T22:54:56;99705.40;;;20.60
69590;BMP180;56792;50.644;17.984;2022-08-04T22:57:33;99703.40;;;20.60
69590;BMP180;56792;50.644;17.984;2022-08-04T23:00:12;99700.40;;;20.50
69590;BMP180;56792;50.644;17.984;2022-08-04T23:02:48;99704.00;;;20.40
69590;BMP180;56792;50.644;17.984;2022-08-04T23:05:26;99704.60;;;20.40
69590;BMP180;56792;50.644;17.984;2022-08-04T23:08:02;99703.60;;;20.36
69590;BMP180;56792;50.644;17.984;2022-08-04T23:10:41;99699.40;;;20.30
69590;BMP180;56792;50.644;17.984;2022-08-04T23:13:19;99697.40;;;20.24
69590;BMP180;56792;50.644;17.984;2022-08-04T23:15:55;99696.00;;;20.20
69590;BMP180;56792;50.644;17.984;2022-08-04T23:18:40;99694.00;;;20.10
69590;BMP180;56792;50.644;17.984;2022-08-04T23:21:18;99693.00;;;20.00
69590;BMP180;56792;50.644;17.984;2022-08-04T23:23:57;99694.40;;;20.00
69590;BMP180;56792;50.644;17.984;2022-08-04T23:26:37;99694.20;;;19.90
69590;BMP180;56792;50.644;17.984;2022-08-04T23:29:16;99690.00;;;19.90
69590;BMP180;56792;50.644;17.984;2022-08-04T23:32:10;99687.40;;;19.80
69590;BMP180;56792;50.644;17.984;2022-08-04T23:34:47;99683.40;;;19.80
69590;BMP180;56792;50.644;17.984;2022-08-04T23:37:24;99672.20;;;19.70
69590;BMP180;56792;50.644;17.984;2022-08-04T23:40:04;99671.20;;;19.70
69590;BMP180;56792;50.644;17.984;2022-08-04T23:42:42;99671.80;;;19.68
69590;BMP180;56792;50.644;17.984;2022-08-04T23:45:19;99669.80;;;19.60
69590;BMP180;56792;50.644;17.984;2022-08-04T23:47:55;99671.80;;;19.58
69590;BMP180;56792;50.644;17.984;2022-08-04T23:50:32;99670.20;;;19.50
69590;BMP180;56792;50.644;17.984;2022-08-04T23:53:11;99669.00;;;19.50
69590;BMP180;56792;50.644;17.984;2022-08-04T23:55:47;99670.60;;;19.40
69590;BMP180;56792;50.644;17.984;2022-08-04T23:58:24;99671.20;;;19.40
